sensor_id;sensor_type;location;lat;lon;timestamp;P1;durP1;ratioP1;P2;durP2;ratioP2
55007;SDS011;40902;45.116;21.296;2023-12-22T00:00:42;11.23;;;7.22;;
55007;SDS011;40902;45.116;21.296;2023-12-22T00:03:16;11.45;;;6.53;;
55007;SDS011;40902;45.116;21.296;2023-12-22T00:05:47;9.90;;;6.18;;
55007;SDS011;40902;45.116;21.296;2023-12-22T00:08:17;10.00;;;6.65;;
55007;SDS011;40902;45.116;21.296;2023-12-22T00:10:54;10.57;;;6.70;;
55007;SDS011;40902;45.116;21.296;2023-12-22T00:13:19;11.65;;;7.15;;
55007;SDS011;40902;45.116;21.296;2023-12-22T00:15:47;11.63;;;6.75;;
55007;SDS011;40902;45.116;21.296;2023-12-22T00:18:20;11.57;;;7.18;;
55007;SDS011;40902;45.116;21.296;2023-12-22T00:20:46;9.50;;;6.47;;
55007;SDS011;40902;45.116;21.296;2023-12-22T00:23:12;10.02;;;6.88;;
55007;SDS011;40902;45.116;21.296;2023-12-22T00:25:40;12.32;;;8.25;;
55007;SDS011;40902;45.116;21.296;2023-12-22T00:28:10;11.90;;;6.90;;
55007;SDS011;40902;45.116;21.296;2023-12-22T00:30:48;10.90;;;6.78;;
55007;SDS011;40902;45.116;21.296;2023-12-22T00:33:27;9.30;;;6.35;;
55007;SDS011;40902;45.116;21.296;2023-12-22T00:35:55;12.75;;;7.18;;
55007;SDS011;40902;45.116;21.296;2023-12-22T00:38:23;10.57;;;7.13;;
55007;SDS011;40902;45.116;21.296;2023-12-22T00:40:54;12.90;;;6.85;;
55007;SDS011;40902;45.116;21.296;2023-12-22T00:43:23;11.52;;;7.80;;
55007;SDS011;40902;45.116;21.296;2023-12-22T00:45:54;11.95;;;7.75;;
55007;SDS011;40902;45.116;21.296;2023-12-22T00:48:26;11.55;;;7.35;;
55007;SDS011;40902;45.116;21.296;2023-12-22T00:51:00;12.07;;;7.85;;
55007;SDS011;40902;45.116;21.296;2023-12-22T00:53:34;13.45;;;8.10;;
55007;SDS011;40902;45.116;21.296;2023-12-22T00:55:59;12.57;;;7.45;;
55007;SDS011;40902;45.116;21.296;2023-12-22T00:58:38;11.10;;;7.30;;
55007;SDS011;40902;45.116;21.296;2023-12-22T01:01:08;11.23;;;7.28;;
55007;SDS011;40902;45.116;21.296;2023-12-22T01:03:35;13.10;;;7.15;;
55007;SDS011;40902;45.116;21.296;2023-12-22T01:06:02;11.43;;;6.85;;
55007;SDS011;40902;45.116;21.296;2023-12-22T01:09:06;10.95;;;6.90;;
55007;SDS011;40902;45.116;21.296;2023-12-22T01:11:32;10.70;;;7.17;;
55007;SDS011;40902;45.116;21.296;2023-12-22T01:13:58;9.18;;;6.40;;
55007;SDS011;40902;45.116;21.296;2023-12-22T01:16:26;10.88;;;6.97;;
55007;SDS011;40902;45.116;21.296;2023-12-22T01:18:57;10.95;;;7.18;;
55007;SDS011;40902;45.116;21.296;2023-12-22T01:21:27;11.23;;;7.10;;
55007;SDS011;40902;45.116;21.296;2023-12-22T01:23:58;11.02;;;6.88;;
55007;SDS011;40902;45.116;21.296;2023-12-22T01:26:27;10.80;;;6.72;;
55007;SDS011;40902;45.116;21.296;2023-12-22T01:29:01;12.43;;;7.30;;
55007;SDS011;40902;45.116;21.296;2023-12-22T01:31:27;9.50;;;6.82;;
55007;SDS011;40902;45.116;21.296;2023-12-22T01:33:55;12.45;;;7.85;;
55007;SDS011;40902;45.116;21.296;2023-12-22T01:36:21;12.98;;;7.38;;
55007;SDS011;40902;45.116;21.296;2023-12-22T01:38:47;9.60;;;6.82;;
55007;SDS011;40902;45.116;21.296;2023-12-22T01:41:13;8.80;;;6.80;;
55007;SDS011;40902;45.116;21.296;2023-12-22T01:43:39;10.80;;;6.85;;
55007;SDS011;40902;45.116;21.296;2023-12-22T01:46:10;10.25;;;7.32;;
55007;SDS011;40902;45.116;21.296;2023-12-22T01:48:39;11.88;;;6.75;;
55007;SDS011;40902;45.116;21.296;2023-12-22T01:51:05;12.13;;;7.43;;
55007;SDS011;40902;45.116;21.296;2023-12-22T01:53:35;9.82;;;6.80;;
55007;SDS011;40902;45.116;21.296;2023-12-22T01:56:01;10.65;;;7.38;;
55007;SDS011;40902;45.116;21.296;2023-12-22T01:58:30;12.05;;;7.00;;
55007;SDS011;40902;45.116;21.296;2023-12-22T02:01:01;10.55;;;7.47;;
55007;SDS011;40902;45.116;21.296;2023-12-22T02:03:38;11.85;;;7.38;;
55007;SDS011;40902;45.116;21.296;2023-12-22T02:06:04;11.95;;;7.20;;
55007;SDS011;40902;45.116;21.296;2023-12-22T02:08:33;11.75;;;7.10;;
55007;SDS011;40902;45.116;21.296;2023-12-22T02:11:02;12.60;;;7.15;;
55007;SDS011;40902;45.116;21.296;2023-12-22T02:13:28;11.38;;;7.35;;
55007;SDS011;40902;45.116;21.296;2023-12-22T02:16:00;10.48;;;7.13;;
55007;SDS011;40902;45.116;21.296;2023-12-22T02:18:36;11.18;;;7.45;;
55007;SDS011;40902;45.116;21.296;2023-12-22T02:21:21;11.95;;;7.47;;
55007;SDS011;40902;45.116;21.296;2023-12-22T02:23:47;11.27;;;7.63;;
55007;SDS011;40902;45.116;21.296;2023-12-22T02:26:41;10.25;;;7.30;;
55007;SDS011;40902;45.116;21.296;2023-12-22T02:29:16;11.90;;;7.60;;
55007;SDS011;40902;45.116;21.296;2023-12-22T02:31:53;10.10;;;6.75;;
55007;SDS011;40902;45.116;21.296;2023-12-22T02:34:21;10.70;;;7.13;;
55007;SDS011;40902;45.116;21.296;2023-12-22T02:36:51;10.95;;;7.38;;
55007;SDS011;40902;45.116;21.296;2023-12-22T02:39:21;12.13;;;7.22;;
55007;SDS011;40902;45.116;21.296;2023-12-22T02:41:47;12.45;;;7.32;;
55007;SDS011;40902;45.116;21.296;2023-12-22T02:44:16;10.35;;;6.82;;
55007;SDS011;40902;45.116;21.296;2023-12-22T02:46:44;10.90;;;7.60;;
55007;SDS011;40902;45.116;21.296;2023-12-22T02:49:24;12.18;;;7.80;;
55007;SDS011;40902;45.116;21.296;2023-12-22T02:51:50;10.63;;;6.90;;
55007;SDS011;40902;45.116;21.296;2023-12-22T02:54:18;12.48;;;7.65;;
55007;SDS011;40902;45.116;21.296;2023-12-22T02:56:47;12.45;;;7.75;;
55007;SDS011;40902;45.116;21.296;2023-12-22T02:59:15;11.77;;;7.10;;
55007;SDS011;40902;45.116;21.296;2023-12-22T03:01:41;11.05;;;7.80;;
55007;SDS011;40902;45.116;21.296;2023-12-22T03:04:07;10.18;;;6.65;;
55007;SDS011;40902;45.116;21.296;2023-12-22T03:06:35;11.38;;;7.80;;
55007;SDS011;40902;45.116;21.296;2023-12-22T03:09:06;11.18;;;7.78;;
55007;SDS011;40902;45.116;21.296;2023-12-22T03:11:34;11.10;;;7.32;;
55007;SDS011;40902;45.116;21.296;2023-12-22T03:14:00;10.98;;;7.75;;
55007;SDS011;40902;45.116;21.296;2023-12-22T03:16:28;9.57;;;7.10;;
55007;SDS011;40902;45.116;21.296;2023-12-22T03:18:56;11.35;;;7.60;;
55007;SDS011;40902;45.116;21.296;2023-12-22T03:21:27;11.68;;;7.82;;
55007;SDS011;40902;45.116;21.296;2023-12-22T03:23:53;10.20;;;7.07;;
55007;SDS011;40902;45.116;21.296;2023-12-22T03:26:30;11.85;;;7.50;;
55007;SDS011;40902;45.116;21.296;2023-12-22T03:28:56;12.32;;;7.95;;
55007;SDS011;40902;45.116;21.296;2023-12-22T03:31:21;13.65;;;7.53;;
55007;SDS011;40902;45.116;21.296;2023-12-22T03:33:49;11.02;;;7.93;;
55007;SDS011;40902;45.116;21.296;2023-12-22T03:36:24;12.90;;;6.82;;
55007;SDS011;40902;45.116;21.296;2023-12-22T03:38:52;14.23;;;7.32;;
55007;SDS011;40902;45.116;21.296;2023-12-22T03:41:21;10.88;;;6.93;;
55007;SDS011;40902;45.116;21.296;2023-12-22T03:43:47;10.55;;;7.38;;
55007;SDS011;40902;45.116;21.296;2023-12-22T03:46:15;12.13;;;7.78;;
55007;SDS011;40902;45.116;21.296;2023-12-22T03:48:41;13.43;;;8.32;;
55007;SDS011;40902;45.116;21.296;2023-12-22T03:51:07;16.45;;;9.18;;
55007;SDS011;40902;45.116;21.296;2023-12-22T03:53:33;14.32;;;8.93;;
55007;SDS011;40902;45.116;21.296;2023-12-22T03:55:58;15.73;;;8.90;;
55007;SDS011;40902;45.116;21.296;2023-12-22T03:58:24;11.70;;;8.73;;
55007;SDS011;40902;45.116;21.296;2023-12-22T04:00:51;14.35;;;9.55;;
55007;SDS011;40902;45.116;21.296;2023-12-22T04:03:17;13.02;;;9.60;;
55007;SDS011;40902;45.116;21.296;2023-12-22T04:05:43;15.00;;;9.80;;
55007;SDS011;40902;45.116;21.296;2023-12-22T04:08:08;14.35;;;9.98;;
55007;SDS011;40902;45.116;21.296;2023-12-22T04:10:34;16.17;;;10.50;;
55007;SDS011;40902;45.116;21.296;2023-12-22T04:13:01;15.15;;;10.02;;
55007;SDS011;40902;45.116;21.296;2023-12-22T04:15:26;16.80;;;10.93;;
55007;SDS011;40902;45.116;21.296;2023-12-22T04:17:52;15.90;;;11.07;;
55007;SDS011;40902;45.116;21.296;2023-12-22T04:20:18;16.15;;;11.73;;
55007;SDS011;40902;45.116;21.296;2023-12-22T04:22:44;17.13;;;11.60;;
55007;SDS011;40902;45.116;21.296;2023-12-22T04:25:09;15.35;;;10.43;;
55007;SDS011;40902;45.116;21.296;2023-12-22T04:27:35;16.65;;;11.98;;
55007;SDS011;40902;45.116;21.296;2023-12-22T04:30:01;14.55;;;10.95;;
55007;SDS011;40902;45.116;21.296;2023-12-22T04:32:27;18.38;;;11.35;;
55007;SDS011;40902;45.116;21.296;2023-12-22T04:34:52;17.88;;;12.45;;
55007;SDS011;40902;45.116;21.296;2023-12-22T04:37:18;18.33;;;12.63;;
55007;SDS011;40902;45.116;21.296;2023-12-22T04:39:44;17.42;;;12.00;;
55007;SDS011;40902;45.116;21.296;2023-12-22T04:42:09;20.95;;;13.65;;
55007;SDS011;40902;45.116;21.296;2023-12-22T04:44:35;20.38;;;13.80;;
55007;SDS011;40902;45.116;21.296;2023-12-22T04:47:01;31.58;;;20.00;;
55007;SDS011;40902;45.116;21.296;2023-12-22T04:49:27;26.42;;;18.65;;
55007;SDS011;40902;45.116;21.296;2023-12-22T04:51:52;20.88;;;14.90;;
55007;SDS011;40902;45.116;21.296;2023-12-22T04:54:18;22.55;;;14.80;;
55007;SDS011;40902;45.116;21.296;2023-12-22T04:56:44;18.67;;;14.30;;
55007;SDS011;40902;45.116;21.296;2023-12-22T04:59:10;20.15;;;14.25;;
55007;SDS011;40902;45.116;21.296;2023-12-22T05:01:35;22.75;;;13.80;;
55007;SDS011;40902;45.116;21.296;2023-12-22T05:04:01;17.67;;;12.95;;
55007;SDS011;40902;45.116;21.296;2023-12-22T05:06:27;20.63;;;13.88;;
55007;SDS011;40902;45.116;21.296;2023-12-22T05:08:54;19.00;;;14.23;;
55007;SDS011;40902;45.116;21.296;2023-12-22T05:11:21;17.38;;;13.55;;
55007;SDS011;40902;45.116;21.296;2023-12-22T05:13:47;22.15;;;15.27;;
55007;SDS011;40902;45.116;21.296;2023-12-22T05:16:13;29.80;;;22.30;;
55007;SDS011;40902;45.116;21.296;2023-12-22T05:18:39;23.17;;;16.50;;
55007;SDS011;40902;45.116;21.296;2023-12-22T05:21:05;21.85;;;17.45;;
55007;SDS011;40902;45.116;21.296;2023-12-22T05:23:31;28.45;;;19.50;;
55007;SDS011;40902;45.116;21.296;2023-12-22T05:25:57;25.83;;;18.58;;
55007;SDS011;40902;45.116;21.296;2023-12-22T05:28:23;21.40;;;15.95;;
55007;SDS011;40902;45.116;21.296;2023-12-22T05:30:49;25.00;;;17.83;;
55007;SDS011;40902;45.116;21.296;2023-12-22T05:33:15;23.50;;;15.98;;
55007;SDS011;40902;45.116;21.296;2023-12-22T05:35:40;22.33;;;14.70;;
55007;SDS011;40902;45.116;21.296;2023-12-22T05:38:06;24.00;;;16.05;;
55007;SDS011;40902;45.116;21.296;2023-12-22T05:40:32;38.45;;;22.48;;
55007;SDS011;40902;45.116;21.296;2023-12-22T05:42:58;34.35;;;20.48;;
55007;SDS011;40902;45.116;21.296;2023-12-22T05:45:24;34.95;;;21.30;;
55007;SDS011;40902;45.116;21.296;2023-12-22T05:47:50;23.63;;;16.15;;
55007;SDS011;40902;45.116;21.296;2023-12-22T05:50:16;21.70;;;15.32;;
55007;SDS011;40902;45.116;21.296;2023-12-22T05:52:42;33.33;;;18.58;;
55007;SDS011;40902;45.116;21.296;2023-12-22T05:55:16;28.58;;;18.85;;
55007;SDS011;40902;45.116;21.296;2023-12-22T05:57:44;41.90;;;25.98;;
55007;SDS011;40902;45.116;21.296;2023-12-22T06:00:10;23.80;;;16.83;;
55007;SDS011;40902;45.116;21.296;2023-12-22T06:02:37;24.25;;;16.67;;
55007;SDS011;40902;45.116;21.296;2023-12-22T06:05:03;24.17;;;17.63;;
55007;SDS011;40902;45.116;21.296;2023-12-22T06:07:29;23.30;;;17.45;;
55007;SDS011;40902;45.116;21.296;2023-12-22T06:09:55;24.35;;;17.50;;
55007;SDS011;40902;45.116;21.296;2023-12-22T06:12:21;24.15;;;16.63;;
55007;SDS011;40902;45.116;21.296;2023-12-22T06:14:47;23.50;;;15.65;;
55007;SDS011;40902;45.116;21.296;2023-12-22T06:17:12;24.00;;;17.67;;
55007;SDS011;40902;45.116;21.296;2023-12-22T06:19:38;24.92;;;17.13;;
55007;SDS011;40902;45.116;21.296;2023-12-22T06:22:04;24.67;;;16.17;;
55007;SDS011;40902;45.116;21.296;2023-12-22T06:24:30;25.58;;;17.95;;
55007;SDS011;40902;45.116;21.296;2023-12-22T06:26:56;23.48;;;16.90;;
55007;SDS011;40902;45.116;21.296;2023-12-22T06:29:22;23.65;;;15.93;;
55007;SDS011;40902;45.116;21.296;2023-12-22T06:31:48;21.85;;;16.10;;
55007;SDS011;40902;45.116;21.296;2023-12-22T06:34:16;23.10;;;15.10;;
55007;SDS011;40902;45.116;21.296;2023-12-22T06:36:42;29.35;;;18.00;;
55007;SDS011;40902;45.116;21.296;2023-12-22T06:39:08;38.38;;;18.10;;
55007;SDS011;40902;45.116;21.296;2023-12-22T06:41:34;30.30;;;17.73;;
55007;SDS011;40902;45.116;21.296;2023-12-22T06:44:00;25.88;;;15.60;;
55007;SDS011;40902;45.116;21.296;2023-12-22T06:46:26;20.88;;;13.38;;
55007;SDS011;40902;45.116;21.296;2023-12-22T06:48:53;21.17;;;14.25;;
55007;SDS011;40902;45.116;21.296;2023-12-22T06:51:20;19.42;;;13.48;;
55007;SDS011;40902;45.116;21.296;2023-12-22T06:53:46;23.73;;;13.80;;
55007;SDS011;40902;45.116;21.296;2023-12-22T06:56:19;19.45;;;13.50;;
55007;SDS011;40902;45.116;21.296;2023-12-22T06:58:50;24.13;;;13.25;;
55007;SDS011;40902;45.116;21.296;2023-12-22T07:01:21;19.00;;;13.90;;
55007;SDS011;40902;45.116;21.296;2023-12-22T07:03:58;23.00;;;13.63;;
55007;SDS011;40902;45.116;21.296;2023-12-22T07:06:28;19.05;;;12.30;;
55007;SDS011;40902;45.116;21.296;2023-12-22T07:11:39;23.05;;;13.63;;
55007;SDS011;40902;45.116;21.296;2023-12-22T07:14:06;18.50;;;13.82;;
55007;SDS011;40902;45.116;21.296;2023-12-22T07:16:32;18.27;;;13.13;;
55007;SDS011;40902;45.116;21.296;2023-12-22T07:18:58;18.30;;;13.82;;
55007;SDS011;40902;45.116;21.296;2023-12-22T07:21:24;19.30;;;13.85;;
55007;SDS011;40902;45.116;21.296;2023-12-22T07:23:50;18.02;;;13.30;;
55007;SDS011;40902;45.116;21.296;2023-12-22T07:26:16;21.92;;;15.25;;
55007;SDS011;40902;45.116;21.296;2023-12-22T07:28:42;20.73;;;15.45;;
55007;SDS011;40902;45.116;21.296;2023-12-22T07:31:08;19.25;;;12.20;;
55007;SDS011;40902;45.116;21.296;2023-12-22T07:33:34;17.25;;;12.40;;
55007;SDS011;40902;45.116;21.296;2023-12-22T07:36:00;19.05;;;12.52;;
55007;SDS011;40902;45.116;21.296;2023-12-22T07:38:25;19.00;;;12.68;;
55007;SDS011;40902;45.116;21.296;2023-12-22T07:40:52;17.38;;;13.48;;
55007;SDS011;40902;45.116;21.296;2023-12-22T07:43:17;17.52;;;13.93;;
55007;SDS011;40902;45.116;21.296;2023-12-22T07:45:43;22.58;;;14.07;;
55007;SDS011;40902;45.116;21.296;2023-12-22T07:48:09;18.45;;;13.95;;
55007;SDS011;40902;45.116;21.296;2023-12-22T07:50:35;18.95;;;12.98;;
55007;SDS011;40902;45.116;21.296;2023-12-22T07:53:01;20.30;;;13.93;;
55007;SDS011;40902;45.116;21.296;2023-12-22T07:55:27;17.45;;;11.65;;
55007;SDS011;40902;45.116;21.296;2023-12-22T07:57:52;20.58;;;12.88;;
55007;SDS011;40902;45.116;21.296;2023-12-22T08:00:18;18.67;;;12.63;;
55007;SDS011;40902;45.116;21.296;2023-12-22T08:02:44;26.20;;;16.77;;
55007;SDS011;40902;45.116;21.296;2023-12-22T08:05:10;32.35;;;22.55;;
55007;SDS011;40902;45.116;21.296;2023-12-22T08:07:36;35.22;;;22.92;;
55007;SDS011;40902;45.116;21.296;2023-12-22T08:10:02;18.77;;;11.75;;
55007;SDS011;40902;45.116;21.296;2023-12-22T08:12:28;39.65;;;24.27;;
55007;SDS011;40902;45.116;21.296;2023-12-22T08:14:54;20.10;;;13.88;;
55007;SDS011;40902;45.116;21.296;2023-12-22T08:17:20;20.27;;;12.80;;
55007;SDS011;40902;45.116;21.296;2023-12-22T08:19:45;21.80;;;13.75;;
55007;SDS011;40902;45.116;21.296;2023-12-22T08:22:12;32.75;;;22.23;;
55007;SDS011;40902;45.116;21.296;2023-12-22T08:24:38;24.92;;;15.07;;
55007;SDS011;40902;45.116;21.296;2023-12-22T08:27:04;31.30;;;22.70;;
55007;SDS011;40902;45.116;21.296;2023-12-22T08:29:34;21.27;;;14.02;;
55007;SDS011;40902;45.116;21.296;2023-12-22T08:32:00;25.15;;;16.63;;
55007;SDS011;40902;45.116;21.296;2023-12-22T08:34:28;13.68;;;10.13;;
55007;SDS011;40902;45.116;21.296;2023-12-22T08:36:54;14.35;;;9.25;;
55007;SDS011;40902;45.116;21.296;2023-12-22T08:39:20;12.75;;;9.38;;
55007;SDS011;40902;45.116;21.296;2023-12-22T08:41:46;20.55;;;17.17;;
55007;SDS011;40902;45.116;21.296;2023-12-22T08:44:13;16.00;;;11.90;;
55007;SDS011;40902;45.116;21.296;2023-12-22T08:46:41;12.27;;;8.23;;
55007;SDS011;40902;45.116;21.296;2023-12-22T08:49:07;49.65;;;29.65;;
55007;SDS011;40902;45.116;21.296;2023-12-22T08:51:33;33.72;;;18.92;;
55007;SDS011;40902;45.116;21.296;2023-12-22T08:54:02;24.42;;;15.52;;
55007;SDS011;40902;45.116;21.296;2023-12-22T08:56:29;75.25;;;49.30;;
55007;SDS011;40902;45.116;21.296;2023-12-22T08:58:55;28.02;;;17.65;;
55007;SDS011;40902;45.116;21.296;2023-12-22T09:01:23;118.57;;;60.15;;
55007;SDS011;40902;45.116;21.296;2023-12-22T09:03:50;87.68;;;42.13;;
55007;SDS011;40902;45.116;21.296;2023-12-22T09:06:18;82.70;;;41.25;;
55007;SDS011;40902;45.116;21.296;2023-12-22T09:08:44;211.70;;;106.05;;
55007;SDS011;40902;45.116;21.296;2023-12-22T09:11:11;102.22;;;52.30;;
55007;SDS011;40902;45.116;21.296;2023-12-22T09:13:38;67.72;;;34.28;;
55007;SDS011;40902;45.116;21.296;2023-12-22T09:16:04;18.70;;;10.63;;
55007;SDS011;40902;45.116;21.296;2023-12-22T09:18:34;6.97;;;3.15;;
55007;SDS011;40902;45.116;21.296;2023-12-22T09:21:00;9.18;;;4.50;;
55007;SDS011;40902;45.116;21.296;2023-12-22T09:23:26;16.15;;;11.25;;
55007;SDS011;40902;45.116;21.296;2023-12-22T09:25:52;8.65;;;4.13;;
55007;SDS011;40902;45.116;21.296;2023-12-22T09:28:18;7.53;;;4.53;;
55007;SDS011;40902;45.116;21.296;2023-12-22T09:30:43;8.10;;;4.45;;
55007;SDS011;40902;45.116;21.296;2023-12-22T09:33:09;9.55;;;5.30;;
55007;SDS011;40902;45.116;21.296;2023-12-22T09:35:35;7.53;;;4.70;;
55007;SDS011;40902;45.116;21.296;2023-12-22T09:38:02;9.32;;;4.30;;
55007;SDS011;40902;45.116;21.296;2023-12-22T09:40:29;12.27;;;5.95;;
55007;SDS011;40902;45.116;21.296;2023-12-22T09:42:55;12.65;;;6.53;;
55007;SDS011;40902;45.116;21.296;2023-12-22T09:45:22;9.63;;;5.88;;
55007;SDS011;40902;45.116;21.296;2023-12-22T09:47:48;10.15;;;6.32;;
55007;SDS011;40902;45.116;21.296;2023-12-22T09:50:19;9.88;;;5.35;;
55007;SDS011;40902;45.116;21.296;2023-12-22T09:52:46;10.70;;;5.80;;
55007;SDS011;40902;45.116;21.296;2023-12-22T09:55:12;9.70;;;5.45;;
55007;SDS011;40902;45.116;21.296;2023-12-22T09:57:38;9.85;;;5.70;;
55007;SDS011;40902;45.116;21.296;2023-12-22T10:00:08;8.38;;;4.93;;
55007;SDS011;40902;45.116;21.296;2023-12-22T10:02:35;11.32;;;6.45;;
55007;SDS011;40902;45.116;21.296;2023-12-22T10:05:02;14.32;;;7.47;;
55007;SDS011;40902;45.116;21.296;2023-12-22T10:07:31;14.20;;;6.97;;
55007;SDS011;40902;45.116;21.296;2023-12-22T10:09:58;10.80;;;6.60;;
55007;SDS011;40902;45.116;21.296;2023-12-22T10:12:25;17.42;;;8.05;;
55007;SDS011;40902;45.116;21.296;2023-12-22T10:14:55;10.65;;;7.45;;
55007;SDS011;40902;45.116;21.296;2023-12-22T10:17:23;11.07;;;6.75;;
55007;SDS011;40902;45.116;21.296;2023-12-22T10:19:51;14.38;;;9.30;;
55007;SDS011;40902;45.116;21.296;2023-12-22T10:22:17;13.05;;;9.80;;
55007;SDS011;40902;45.116;21.296;2023-12-22T10:24:46;15.20;;;9.50;;
55007;SDS011;40902;45.116;21.296;2023-12-22T10:27:13;12.02;;;7.03;;
55007;SDS011;40902;45.116;21.296;2023-12-22T10:29:41;12.15;;;7.03;;
55007;SDS011;40902;45.116;21.296;2023-12-22T10:32:07;11.18;;;6.55;;
55007;SDS011;40902;45.116;21.296;2023-12-22T10:34:36;12.55;;;8.20;;
55007;SDS011;40902;45.116;21.296;2023-12-22T10:37:02;11.13;;;7.22;;
55007;SDS011;40902;45.116;21.296;2023-12-22T10:39:31;11.15;;;6.65;;
55007;SDS011;40902;45.116;21.296;2023-12-22T10:41:58;13.52;;;7.15;;
55007;SDS011;40902;45.116;21.296;2023-12-22T10:44:25;13.85;;;6.57;;
55007;SDS011;40902;45.116;21.296;2023-12-22T10:46:51;11.40;;;6.55;;
55007;SDS011;40902;45.116;21.296;2023-12-22T10:49:19;15.32;;;8.23;;
55007;SDS011;40902;45.116;21.296;2023-12-22T10:51:45;12.30;;;6.50;;
55007;SDS011;40902;45.116;21.296;2023-12-22T10:54:11;16.35;;;7.57;;
55007;SDS011;40902;45.116;21.296;2023-12-22T10:56:37;16.08;;;8.55;;
55007;SDS011;40902;45.116;21.296;2023-12-22T10:59:04;21.50;;;10.20;;
55007;SDS011;40902;45.116;21.296;2023-12-22T11:01:32;7.47;;;4.05;;
55007;SDS011;40902;45.116;21.296;2023-12-22T11:04:01;6.47;;;3.75;;
55007;SDS011;40902;45.116;21.296;2023-12-22T11:06:31;7.63;;;3.90;;
55007;SDS011;40902;45.116;21.296;2023-12-22T11:09:00;9.13;;;4.10;;
55007;SDS011;40902;45.116;21.296;2023-12-22T11:11:30;8.43;;;4.18;;
55007;SDS011;40902;45.116;21.296;2023-12-22T11:14:02;8.00;;;4.00;;
55007;SDS011;40902;45.116;21.296;2023-12-22T11:16:29;6.68;;;3.25;;
55007;SDS011;40902;45.116;21.296;2023-12-22T11:18:55;6.05;;;2.67;;
55007;SDS011;40902;45.116;21.296;2023-12-22T11:21:22;8.93;;;2.92;;
55007;SDS011;40902;45.116;21.296;2023-12-22T11:23:50;9.10;;;4.05;;
55007;SDS011;40902;45.116;21.296;2023-12-22T11:26:17;13.35;;;5.60;;
55007;SDS011;40902;45.116;21.296;2023-12-22T11:28:44;9.27;;;4.93;;
55007;SDS011;40902;45.116;21.296;2023-12-22T11:31:11;6.65;;;3.63;;
55007;SDS011;40902;45.116;21.296;2023-12-22T11:33:39;8.38;;;3.60;;
55007;SDS011;40902;45.116;21.296;2023-12-22T11:36:09;7.75;;;3.65;;
55007;SDS011;40902;45.116;21.296;2023-12-22T11:38:36;15.68;;;6.82;;
55007;SDS011;40902;45.116;21.296;2023-12-22T11:41:01;12.27;;;7.07;;
55007;SDS011;40902;45.116;21.296;2023-12-22T11:43:31;6.63;;;2.83;;
55007;SDS011;40902;45.116;21.296;2023-12-22T11:46:02;7.50;;;4.22;;
55007;SDS011;40902;45.116;21.296;2023-12-22T11:48:28;6.13;;;3.15;;
55007;SDS011;40902;45.116;21.296;2023-12-22T11:50:55;7.85;;;3.80;;
55007;SDS011;40902;45.116;21.296;2023-12-22T11:53:21;6.72;;;3.00;;
55007;SDS011;40902;45.116;21.296;2023-12-22T11:58:33;16.20;;;7.22;;
55007;SDS011;40902;45.116;21.296;2023-12-22T12:01:12;8.70;;;4.47;;
55007;SDS011;40902;45.116;21.296;2023-12-22T12:03:42;9.38;;;3.70;;
55007;SDS011;40902;45.116;21.296;2023-12-22T12:08:38;11.88;;;6.72;;
55007;SDS011;40902;45.116;21.296;2023-12-22T12:11:05;24.38;;;13.20;;
55007;SDS011;40902;45.116;21.296;2023-12-22T12:13:32;10.93;;;5.15;;
55007;SDS011;40902;45.116;21.296;2023-12-22T12:15:59;9.55;;;4.55;;
55007;SDS011;40902;45.116;21.296;2023-12-22T12:18:29;14.00;;;5.20;;
55007;SDS011;40902;45.116;21.296;2023-12-22T12:20:59;13.23;;;4.88;;
55007;SDS011;40902;45.116;21.296;2023-12-22T12:23:28;17.20;;;8.20;;
55007;SDS011;40902;45.116;21.296;2023-12-22T12:25:57;16.08;;;7.20;;
55007;SDS011;40902;45.116;21.296;2023-12-22T12:28:28;37.42;;;13.95;;
55007;SDS011;40902;45.116;21.296;2023-12-22T12:30:59;28.83;;;11.25;;
55007;SDS011;40902;45.116;21.296;2023-12-22T12:33:35;41.35;;;16.00;;
55007;SDS011;40902;45.116;21.296;2023-12-22T12:36:12;33.00;;;14.35;;
55007;SDS011;40902;45.116;21.296;2023-12-22T12:41:53;15.30;;;9.35;;
55007;SDS011;40902;45.116;21.296;2023-12-22T12:44:26;20.05;;;10.30;;
55007;SDS011;40902;45.116;21.296;2023-12-22T12:47:01;21.40;;;9.95;;
55007;SDS011;40902;45.116;21.296;2023-12-22T12:49:52;13.70;;;7.63;;
55007;SDS011;40902;45.116;21.296;2023-12-22T12:52:24;15.05;;;7.22;;
55007;SDS011;40902;45.116;21.296;2023-12-22T12:54:51;10.45;;;6.55;;
55007;SDS011;40902;45.116;21.296;2023-12-22T12:57:17;14.30;;;6.90;;
55007;SDS011;40902;45.116;21.296;2023-12-22T12:59:49;15.85;;;8.18;;
55007;SDS011;40902;45.116;21.296;2023-12-22T13:02:21;12.23;;;7.35;;
55007;SDS011;40902;45.116;21.296;2023-12-22T13:04:51;12.77;;;6.53;;
55007;SDS011;40902;45.116;21.296;2023-12-22T13:07:25;10.82;;;5.30;;
55007;SDS011;40902;45.116;21.296;2023-12-22T13:09:51;10.77;;;5.40;;
55007;SDS011;40902;45.116;21.296;2023-12-22T13:12:19;12.52;;;6.53;;
55007;SDS011;40902;45.116;21.296;2023-12-22T13:14:44;20.25;;;8.68;;
55007;SDS011;40902;45.116;21.296;2023-12-22T13:17:10;12.77;;;7.05;;
55007;SDS011;40902;45.116;21.296;2023-12-22T13:19:36;10.90;;;6.13;;
55007;SDS011;40902;45.116;21.296;2023-12-22T13:22:02;10.82;;;5.07;;
55007;SDS011;40902;45.116;21.296;2023-12-22T13:24:30;8.75;;;5.00;;
55007;SDS011;40902;45.116;21.296;2023-12-22T13:27:00;9.77;;;5.38;;
55007;SDS011;40902;45.116;21.296;2023-12-22T13:29:28;9.65;;;4.93;;
55007;SDS011;40902;45.116;21.296;2023-12-22T13:32:20;10.32;;;4.97;;
55007;SDS011;40902;45.116;21.296;2023-12-22T13:34:50;11.68;;;4.95;;
55007;SDS011;40902;45.116;21.296;2023-12-22T13:37:20;11.63;;;6.07;;
55007;SDS011;40902;45.116;21.296;2023-12-22T13:40:00;10.90;;;6.25;;
55007;SDS011;40902;45.116;21.296;2023-12-22T13:42:34;12.57;;;6.35;;
55007;SDS011;40902;45.116;21.296;2023-12-22T13:45:13;12.13;;;5.70;;
55007;SDS011;40902;45.116;21.296;2023-12-22T13:47:50;14.35;;;6.35;;
55007;SDS011;40902;45.116;21.296;2023-12-22T13:50:21;11.15;;;6.05;;
55007;SDS011;40902;45.116;21.296;2023-12-22T13:52:53;14.10;;;6.10;;
55007;SDS011;40902;45.116;21.296;2023-12-22T13:55:19;9.70;;;4.53;;
55007;SDS011;40902;45.116;21.296;2023-12-22T13:57:49;13.02;;;5.75;;
55007;SDS011;40902;45.116;21.296;2023-12-22T14:00:28;10.02;;;4.60;;
55007;SDS011;40902;45.116;21.296;2023-12-22T14:02:54;10.95;;;5.28;;
55007;SDS011;40902;45.116;21.296;2023-12-22T14:05:23;12.88;;;6.60;;
55007;SDS011;40902;45.116;21.296;2023-12-22T14:08:07;14.77;;;7.53;;
55007;SDS011;40902;45.116;21.296;2023-12-22T14:10:56;12.27;;;6.72;;
55007;SDS011;40902;45.116;21.296;2023-12-22T14:13:21;12.52;;;6.63;;
55007;SDS011;40902;45.116;21.296;2023-12-22T14:15:47;9.95;;;5.40;;
55007;SDS011;40902;45.116;21.296;2023-12-22T14:18:21;10.65;;;4.50;;
55007;SDS011;40902;45.116;21.296;2023-12-22T14:20:52;8.82;;;4.10;;
55007;SDS011;40902;45.116;21.296;2023-12-22T14:23:28;10.50;;;4.03;;
55007;SDS011;40902;45.116;21.296;2023-12-22T14:26:00;9.15;;;3.80;;
55007;SDS011;40902;45.116;21.296;2023-12-22T14:28:31;9.10;;;3.45;;
55007;SDS011;40902;45.116;21.296;2023-12-22T14:31:02;8.95;;;3.60;;
55007;SDS011;40902;45.116;21.296;2023-12-22T14:33:28;8.10;;;3.78;;
55007;SDS011;40902;45.116;21.296;2023-12-22T14:36:02;11.15;;;5.53;;